Time;durP1;ratioP1;P1;durP2;ratioP2;P2;SDS_P1;SDS_P2;PMS_P1;PMS_P2;Temp;Humidity;BMP_temperature;BMP_pressure;BME280_temperature;BME280_humidity;BME280_pressure;Samples;Min_cycle;Max_cycle;Signal;HPM_P1;HPM_P2
2023/08/19 00:01:43;;;;;;;31.73;29.42;;;;;;;24.29;68.29;100385.25;4993266;28;97328;-80
2023/08/19 00:04:09;;;;;;;33.88;31.02;;;;;;;24.17;69.20;100386.34;4992836;28;96834;-80
2023/08/19 00:06:37;;;;;;;31.92;29.63;;;;;;;24.14;69.12;100387.50;4992075;28;99257;-80
2023/08/19 00:09:04;;;;;;;32.78;30.17;;;;;;;24.10;69.54;100386.06;4992393;28;98302;-80
2023/08/19 00:11:31;;;;;;;32.15;29.33;;;;;;;24.21;69.16;100382.41;4992415;28;96654;-80
2023/08/19 00:13:57;;;;;;;32.08;29.67;;;;;;;24.22;69.30;100383.25;4992427;28;96863;-80
2023/08/19 00:16:22;;;;;;;32.83;30.25;;;;;;;24.21;69.40;100384.25;4992505;28;99165;-80
2023/08/19 00:18:48;;;;;;;31.48;28.83;;;;;;;24.25;69.20;100382.97;4997082;28;98567;-80
2023/08/19 00:21:14;;;;;;;33.47;30.85;;;;;;;24.21;69.11;100385.09;4981494;28;96769;-80
2023/08/19 00:23:39;;;;;;;32.60;29.73;;;;;;;24.14;69.36;100386.63;4998641;28;96984;-80
2023/08/19 00:26:05;;;;;;;32.78;30.25;;;;;;;24.15;69.36;100386.50;4998465;28;98664;-80
2023/08/19 00:28:31;;;;;;;33.50;30.85;;;;;;;24.03;70.00;100387.59;4999165;28;97430;-80
2023/08/19 00:30:56;;;;;;;34.25;31.33;;;;;;;24.01;70.31;100378.84;4976153;28;98581;-80
2023/08/19 00:33:23;;;;;;;32.97;30.27;;;;;;;24.07;69.93;100382.81;4990585;28;96889;-80
2023/08/19 00:35:52;;;;;;;33.03;30.52;;;;;;;24.06;69.97;100384.66;5010138;28;100407;-80
2023/08/19 00:38:18;;;;;;;32.50;29.65;;;;;;;24.03;70.09;100386.72;4998795;28;98348;-80
2023/08/19 00:40:43;;;;;;;33.13;30.20;;;;;;;24.07;70.13;100391.69;4998840;28;96700;-80
2023/08/19 00:43:09;;;;;;;32.92;30.40;;;;;;;24.10;69.97;100387.91;4999195;28;97186;-80
2023/08/19 00:45:37;;;;;;;33.00;30.40;;;;;;;24.15;69.71;100377.59;4980322;28;100683;-80
2023/08/19 00:48:03;;;;;;;33.08;30.65;;;;;;;24.11;69.59;100368.13;4980647;28;100686;-80
2023/08/19 00:50:29;;;;;;;33.83;30.92;;;;;;;24.07;69.81;100369.41;5001899;28;96842;-80
2023/08/19 00:52:55;;;;;;;32.20;29.80;;;;;;;23.96;69.88;100365.00;4999547;28;96816;-80
2023/08/19 00:55:21;;;;;;;33.72;30.88;;;;;;;23.98;69.93;100368.41;4996889;28;98912;-80
2023/08/19 00:57:46;;;;;;;32.53;29.70;;;;;;;24.01;70.02;100359.22;4998839;28;97183;-80
2023/08/19 01:00:13;;;;;;;32.47;30.00;;;;;;;23.99;69.72;100358.50;4963808;28;96805;-80
2023/08/19 01:02:38;;;;;;;31.33;28.60;;;;;;;23.99;69.77;100356.69;4998775;28;96813;-81
2023/08/19 01:05:04;;;;;;;31.75;29.30;;;;;;;24.00;69.85;100362.88;4998340;28;97999;-81
2023/08/19 01:07:39;;;;;;;33.03;30.42;;;;;;;23.91;69.90;100356.50;4984982;28;100338;-82
2023/08/19 01:10:10;;;;;;;33.60;30.77;;;;;;;23.81;70.30;100353.81;5013657;28;96772;-80
2023/08/19 01:12:54;;;;;;;;;;;;;;;23.81;70.06;100347.63;4981486;28;96875;-80
2023/08/19 01:15:22;;;;;;;33.63;30.65;;;;;;;23.68;70.53;100351.34;4998004;28;98688;-80
2023/08/19 01:17:49;;;;;;;34.25;31.40;;;;;;;23.77;70.28;100348.88;4980779;28;98407;-81
2023/08/19 01:20:15;;;;;;;32.88;30.13;;;;;;;23.65;70.71;100359.66;4996670;28;97428;-80
2023/08/19 01:22:49;;;;;;;33.08;30.58;;;;;;;23.65;70.69;100353.44;4981026;28;96924;-80
2023/08/19 01:25:15;;;;;;;32.35;29.95;;;;;;;23.71;70.48;100351.13;4997396;28;98765;-80
2023/08/19 01:27:41;;;;;;;33.22;30.60;;;;;;;23.78;70.10;100355.94;4997040;28;98416;-80
2023/08/19 01:30:07;;;;;;;33.45;30.55;;;;;;;23.71;70.29;100352.94;4994825;28;96870;-80
2023/08/19 01:32:32;;;;;;;33.72;31.23;;;;;;;23.65;70.37;100356.13;4995362;28;96849;-80
2023/08/19 01:34:58;;;;;;;34.00;31.17;;;;;;;23.65;70.42;100362.34;4977129;28;97506;-80
2023/08/19 01:37:34;;;;;;;33.33;30.48;;;;;;;23.62;70.43;100359.94;4994616;28;98671;-80
2023/08/19 01:40:00;;;;;;;32.63;29.85;;;;;;;23.63;70.42;100360.78;4964900;28;96802;-79
2023/08/19 01:42:26;;;;;;;32.75;29.75;;;;;;;23.70;70.14;100360.13;4977774;28;96888;-81
2023/08/19 01:44:53;;;;;;;31.83;29.33;;;;;;;23.78;69.89;100366.66;4956712;28;100330;-80
2023/08/19 01:47:19;;;;;;;32.10;29.58;;;;;;;23.85;69.46;100362.41;4948929;28;99047;-80
2023/08/19 01:49:46;;;;;;;33.63;30.83;;;;;;;23.78;69.71;100361.28;4991903;28;96865;-80
2023/08/19 01:52:12;;;;;;;32.28;29.75;;;;;;;23.80;69.59;100365.53;4995032;28;97265;-80
2023/08/19 01:54:38;;;;;;;32.33;29.83;;;;;;;23.82;69.36;100354.66;4976096;28;100889;-80
2023/08/19 01:57:05;;;;;;;32.17;29.73;;;;;;;23.84;69.20;100356.22;4994562;28;98289;-80
2023/08/19 01:59:32;;;;;;;32.60;29.65;;;;;;;23.88;69.17;100354.97;4999769;28;96752;-80
2023/08/19 02:01:58;;;;;;;31.38;28.65;;;;;;;23.87;69.29;100353.25;4976711;28;97013;-81
2023/08/19 02:04:23;;;;;;;32.25;29.85;;;;;;;23.89;69.00;100353.97;4976270;28;100490;-80
2023/08/19 02:06:49;;;;;;;33.13;30.33;;;;;;;23.90;68.93;100368.22;4994585;28;98673;-80
2023/08/19 02:09:15;;;;;;;31.95;29.30;;;;;;;23.90;68.61;100357.50;4994538;28;96819;-80
2023/08/19 02:11:40;;;;;;;33.28;30.58;;;;;;;23.86;68.78;100364.97;4994742;28;96827;-80
2023/08/19 02:14:06;;;;;;;33.75;30.92;;;;;;;23.69;69.03;100360.25;4993644;28;98788;-80
2023/08/19 02:16:31;;;;;;;31.70;29.08;;;;;;;23.70;69.15;100361.94;4994621;28;97349;-80
2023/08/19 02:18:58;;;;;;;33.75;30.67;;;;;;;23.73;68.91;100359.00;4975686;28;96920;-80
2023/08/19 02:21:24;;;;;;;33.10;30.35;;;;;;;23.78;68.64;100362.13;4994321;28;96833;-81
2023/08/19 02:23:49;;;;;;;32.40;29.73;;;;;;;23.75;68.94;100369.59;4993234;28;99180;-80
2023/08/19 02:26:15;;;;;;;32.38;29.63;;;;;;;23.69;68.89;100362.91;4994122;28;97065;-80
2023/08/19 02:28:40;;;;;;;33.47;30.60;;;;;;;23.65;68.96;100365.03;4993896;28;96657;-80
2023/08/19 02:31:06;;;;;;;31.95;29.55;;;;;;;23.59;69.30;100359.34;4994685;28;96870;-81
2023/08/19 02:33:32;;;;;;;32.35;29.65;;;;;;;23.64;69.14;100359.78;4993949;28;98899;-80
2023/08/19 02:35:57;;;;;;;31.73;28.90;;;;;;;23.66;69.01;100369.38;4993383;28;98260;-80
2023/08/19 02:38:23;;;;;;;32.45;29.50;;;;;;;23.69;69.26;100368.28;4993842;28;96986;-80
2023/08/19 02:40:52;;;;;;;31.85;29.25;;;;;;;23.75;68.81;100366.91;4993714;28;96835;-80
2023/08/19 02:43:18;;;;;;;32.70;30.23;;;;;;;23.74;68.57;100374.13;4993801;28;97498;-80
2023/08/19 02:45:45;;;;;;;32.47;29.95;;;;;;;23.57;68.96;100367.53;4993412;28;98417;-80
2023/08/19 02:48:11;;;;;;;32.60;29.77;;;;;;;23.56;68.92;100368.53;4994352;28;96651;-81
2023/08/19 02:50:36;;;;;;;33.75;31.15;;;;;;;23.59;68.91;100353.97;4994180;28;96798;-81
2023/08/19 02:53:02;;;;;;;32.25;29.50;;;;;;;23.61;68.93;100355.53;4993551;28;99033;-81
2023/08/19 02:55:28;;;;;;;33.90;30.70;;;;;;;23.64;68.64;100359.78;4993583;28;98411;-81
2023/08/19 02:57:53;;;;;;;32.10;29.60;;;;;;;23.59;68.54;100348.63;4993906;28;96707;-80
2023/08/19 03:00:19;;;;;;;31.42;29.13;;;;;;;23.59;68.68;100348.63;4993687;28;96852;-80
2023/08/19 03:02:46;;;;;;;31.75;29.27;;;;;;;23.58;68.75;100346.94;4992950;28;98628;-81
2023/08/19 03:05:12;;;;;;;33.45;30.65;;;;;;;23.58;68.62;100361.16;4993058;28;98249;-80
2023/08/19 03:07:37;;;;;;;32.55;29.95;;;;;;;23.50;68.72;100358.31;4993800;28;98477;-81
2023/08/19 03:10:04;;;;;;;33.05;30.40;;;;;;;23.33;69.21;100354.47;4993760;28;96752;-80
2023/08/19 03:12:29;;;;;;;33.25;30.70;;;;;;;23.38;69.30;100354.88;4992961;28;98727;-81
2023/08/19 03:14:55;;;;;;;33.35;30.65;;;;;;;23.39;68.91;100358.44;4992850;28;98749;-80
2023/08/19 03:17:22;;;;;;;34.13;31.40;;;;;;;23.30;69.36;100362.75;4993847;28;96783;-81
2023/08/19 03:19:48;;;;;;;34.65;31.60;;;;;;;23.22;69.43;100366.09;4993446;28;96840;-81
2023/08/19 03:22:14;;;;;;;34.47;31.48;;;;;;;23.16;69.85;100360.44;4991551;28;100358;-81
2023/08/19 03:24:39;;;;;;;34.00;31.23;;;;;;;23.08;70.22;100369.09;4992350;28;98298;-80
2023/08/19 03:27:05;;;;;;;33.85;31.33;;;;;;;23.12;70.05;100375.88;4986368;28;97425;-81
2023/08/19 03:29:31;;;;;;;35.53;32.55;;;;;;;23.14;69.86;100370.41;4973992;28;96945;-81
2023/08/19 03:31:59;;;;;;;33.65;31.08;;;;;;;23.06;70.19;100371.06;4992948;28;98978;-81
2023/08/19 03:34:25;;;;;;;35.88;32.35;;;;;;;23.03;70.26;100371.31;4975353;28;100287;-81
2023/08/19 03:36:51;;;;;;;33.80;30.90;;;;;;;22.96;70.46;100367.47;4992721;28;96604;-80
2023/08/19 03:39:16;;;;;;;32.72;30.25;;;;;;;23.04;70.28;100373.03;4993659;28;96788;-80
2023/08/19 03:41:42;;;;;;;34.22;31.55;;;;;;;23.04;70.25;100370.34;4992788;28;99145;-81
2023/08/19 03:44:07;;;;;;;35.22;32.33;;;;;;;22.97;70.52;100369.16;4993125;28;98494;-81
2023/08/19 03:46:33;;;;;;;35.45;32.55;;;;;;;22.91;70.86;100366.97;4975517;28;96842;-81
2023/08/19 03:48:58;;;;;;;34.33;31.63;;;;;;;22.87;70.79;100362.88;4992886;28;96978;-81
2023/08/19 03:51:24;;;;;;;35.97;33.08;;;;;;;22.89;70.94;100371.59;4991999;28;98910;-81
2023/08/19 03:53:49;;;;;;;33.58;30.98;;;;;;;22.92;70.65;100368.66;4974181;28;100228;-81
2023/08/19 03:56:15;;;;;;;35.97;33.00;;;;;;;22.82;70.97;100372.13;4975384;28;97313;-81
2023/08/19 03:58:40;;;;;;;35.60;32.60;;;;;;;22.78;71.16;100361.84;4993104;28;96844;-81
2023/08/19 04:01:09;;;;;;;34.92;31.98;;;;;;;22.73;71.22;100364.88;4974820;28;101040;-81
2023/08/19 04:03:38;;;;;;;34.60;31.70;;;;;;;22.79;71.02;100368.88;4974561;28;100051;-80
2023/08/19 04:06:03;;;;;;;35.55;32.60;;;;;;;22.71;71.49;100371.34;4975005;28;96781;-81
2023/08/19 04:08:29;;;;;;;33.10;30.52;;;;;;;22.66;71.49;100374.41;4993136;28;96696;-81
2023/08/19 04:11:02;;;;;;;34.20;31.35;;;;;;;22.68;71.62;100380.47;4974546;28;99877;-81
2023/08/19 04:13:28;;;;;;;33.45;30.75;;;;;;;22.81;71.11;100388.34;4991909;28;98640;-80
2023/08/19 04:15:53;;;;;;;34.78;32.03;;;;;;;22.75;71.40;100381.66;4973575;28;96875;-80
2023/08/19 04:18:19;;;;;;;36.33;33.53;;;;;;;22.60;71.98;100385.59;4991987;28;96877;-80
2023/08/19 04:20:45;;;;;;;35.08;31.98;;;;;;;22.61;72.21;100387.31;4974239;28;100734;-80
2023/08/19 04:23:12;;;;;;;38.55;35.08;;;;;;;22.60;72.30;100389.16;4992195;28;98447;-80
2023/08/19 04:25:38;;;;;;;34.25;31.60;;;;;;;22.68;72.03;100391.16;4992888;28;97043;-80
2023/08/19 04:28:03;;;;;;;39.85;33.78;;;;;;;22.70;71.91;100391.06;4974448;28;96972;-80
2023/08/19 04:30:29;;;;;;;35.83;32.90;;;;;;;22.58;72.36;100387.59;4990795;28;101124;-80
2023/08/19 04:32:58;;;;;;;37.72;34.47;;;;;;;22.56;72.47;100390.38;4974584;28;100043;-80
2023/08/19 04:35:27;;;;;;;35.85;32.85;;;;;;;22.55;72.88;100388.69;4974920;28;96862;-80
2023/08/19 04:37:53;;;;;;;38.10;35.00;;;;;;;22.51;73.03;100383.69;4960762;28;97339;-80
2023/08/19 04:40:19;;;;;;;38.85;35.17;;;;;;;22.51;73.17;100384.53;4973633;28;100864;-80
2023/08/19 04:42:44;;;;;;;38.65;35.35;;;;;;;22.46;73.56;100385.94;4973653;28;99760;-80
2023/08/19 04:45:10;;;;;;;37.78;34.65;;;;;;;22.46;73.66;100384.09;4992547;28;96799;-80
2023/08/19 04:47:39;;;;;;;40.33;35.47;;;;;;;22.41;74.04;100380.94;4974217;28;97093;-80
2023/08/19 04:50:08;;;;;;;36.97;34.00;;;;;;;22.36;74.51;100392.00;4992037;28;99004;-80
2023/08/19 04:52:34;;;;;;;36.70;33.58;;;;;;;22.48;73.77;100392.81;4957532;28;99908;-80
2023/08/19 04:55:00;;;;;;;37.80;34.63;;;;;;;22.46;73.99;100397.47;4992560;28;96736;-81
2023/08/19 04:57:25;;;;;;;35.72;32.75;;;;;;;22.56;73.61;100397.56;4992549;28;96858;-80
2023/08/19 04:59:51;;;;;;;35.88;32.67;;;;;;;22.59;73.33;100397.28;4974036;28;100765;-80
2023/08/19 05:02:16;;;;;;;36.92;33.67;;;;;;;22.55;73.36;100394.03;4991755;28;98315;-80
2023/08/19 05:04:42;;;;;;;38.13;34.13;;;;;;;22.56;73.60;100405.56;4993080;28;96796;-80
2023/08/19 05:07:09;;;;;;;36.63;32.83;;;;;;;22.67;73.12;100397.50;4977143;28;96974;-80
2023/08/19 05:09:34;;;;;;;36.15;33.25;;;;;;;22.60;73.52;100398.97;4977346;28;100882;-80
2023/08/19 05:12:00;;;;;;;31.63;29.33;;;;;;;22.66;73.64;100405.66;4976777;28;100011;-80
2023/08/19 05:14:27;;;;;;;33.45;30.85;;;;;;;22.69;73.36;100400.91;4978059;28;96863;-80
2023/08/19 05:16:52;;;;;;;32.35;29.95;;;;;;;22.71;73.10;100403.44;4977218;28;96941;-80
2023/08/19 05:19:19;;;;;;;32.03;29.63;;;;;;;22.75;73.34;100408.44;4977489;28;100473;-81
2023/08/19 05:21:48;;;;;;;31.58;29.25;;;;;;;22.66;73.27;100402.97;4977193;28;99807;-80
2023/08/19 05:24:14;;;;;;;33.03;30.63;;;;;;;22.75;72.59;100402.22;4995717;28;96728;-80
2023/08/19 05:26:41;;;;;;;31.33;29.02;;;;;;;22.76;73.42;100403.91;4977098;28;96972;-80
2023/08/19 05:29:07;;;;;;;30.65;28.50;;;;;;;22.72;73.75;100408.69;4994062;28;100307;-80
2023/08/19 05:31:33;;;;;;;30.95;28.85;;;;;;;22.75;73.60;100405.75;4994533;28;98454;-80
2023/08/19 05:33:59;;;;;;;30.50;28.27;;;;;;;22.94;73.53;100413.06;4995131;28;96908;-80
2023/08/19 05:36:24;;;;;;;32.55;30.15;;;;;;;22.98;73.41;100413.69;4995095;28;96719;-80
2023/08/19 05:38:50;;;;;;;30.88;28.67;;;;;;;23.09;72.80;100410.94;4994174;28;98826;-80
2023/08/19 05:41:15;;;;;;;28.77;26.88;;;;;;;23.32;71.73;100414.34;4991857;28;98408;-79
2023/08/19 05:43:41;;;;;;;29.83;27.40;;;;;;;23.45;71.01;100420.34;4994513;28;97177;-80
2023/08/19 05:46:07;;;;;;;29.67;27.58;;;;;;;23.60;70.20;100411.97;4995467;28;96856;-79
2023/08/19 05:48:33;;;;;;;30.65;28.35;;;;;;;23.68;69.75;100417.50;4994380;28;98979;-79
2023/08/19 05:50:58;;;;;;;29.60;27.40;;;;;;;23.73;69.81;100417.94;4976665;28;98416;-79
2023/08/19 05:53:24;;;;;;;28.95;26.95;;;;;;;23.78;69.82;100421.09;4993948;28;96841;-79
2023/08/19 05:55:49;;;;;;;30.98;28.52;;;;;;;23.83;69.59;100434.09;4995009;28;96960;-80
2023/08/19 05:58:15;;;;;;;30.50;28.30;;;;;;;23.97;68.63;100427.50;4994131;28;98646;-80
2023/08/19 06:00:42;;;;;;;29.65;27.45;;;;;;;24.04;68.62;100428.66;4994595;28;98598;-80
2023/08/19 06:03:07;;;;;;;28.42;26.35;;;;;;;24.16;68.46;100428.41;4976796;28;97169;-77
2023/08/19 06:05:35;;;;;;;29.00;26.92;;;;;;;24.12;68.95;100427.00;4994971;28;96942;-77
2023/08/19 06:08:00;;;;;;;28.77;26.52;;;;;;;24.08;68.83;100427.38;4992187;28;99029;-77
2023/08/19 06:10:26;;;;;;;31.10;28.65;;;;;;;24.17;69.34;100434.59;4990668;28;98455;-81
2023/08/19 06:12:52;;;;;;;28.10;25.65;;;;;;;30.34;51.95;100430.91;4982884;28;96810;-78
2023/08/19 06:15:18;;;;;;;28.33;26.23;;;;;;;32.67;45.84;100425.31;4991573;28;96746;-75
2023/08/19 06:17:43;;;;;;;28.42;26.38;;;;;;;34.81;41.25;100419.22;4992065;28;99091;-74
2023/08/19 06:20:09;;;;;;;27.58;25.65;;;;;;;35.57;39.38;100424.25;4982559;28;99964;-75
2023/08/19 06:22:35;;;;;;;27.52;25.60;;;;;;;35.96;38.53;100430.66;4989516;28;96845;-76
2023/08/19 06:25:01;;;;;;;26.48;24.67;;;;;;;36.85;37.89;100437.13;4989936;28;97464;-76
2023/08/19 06:27:27;;;;;;;26.80;24.85;;;;;;;37.57;35.84;100424.72;4991219;28;98678;-75
2023/08/19 06:29:52;;;;;;;30.20;27.85;;;;;;;37.63;35.79;100428.47;4989723;28;98429;-76
2023/08/19 06:32:18;;;;;;;27.27;24.70;;;;;;;38.85;34.00;100430.25;4993084;28;96882;-76
2023/08/19 06:34:44;;;;;;;26.70;24.65;;;;;;;39.30;33.35;100435.22;4993237;28;96884;-76
2023/08/19 06:37:12;;;;;;;26.63;24.42;;;;;;;39.59;32.49;100441.63;4992284;28;99264;-76
2023/08/19 06:39:39;;;;;;;25.13;23.15;;;;;;;39.48;32.60;100431.53;4990764;28;98297;-82
2023/08/19 06:42:05;;;;;;;25.05;23.27;;;;;;;40.01;31.85;100431.31;4998767;28;97179;-76
2023/08/19 06:44:33;;;;;;;25.20;23.27;;;;;;;40.90;30.81;100435.44;4990672;28;97001;-76
2023/08/19 06:47:01;;;;;;;24.52;22.73;;;;;;;41.55;30.29;100431.28;4988880;28;99339;-77
2023/08/19 06:49:27;;;;;;;25.08;23.27;;;;;;;42.09;29.76;100425.91;4992402;28;98433;-76
2023/08/19 06:51:53;;;;;;;25.88;24.08;;;;;;;42.26;28.72;100421.13;4992689;28;97255;-76
2023/08/19 06:54:19;;;;;;;25.33;23.60;;;;;;;42.25;28.65;100422.22;4983726;28;97043;-77
2023/08/19 06:56:49;;;;;;;24.73;22.88;;;;;;;43.13;26.95;100424.72;4990575;28;98784;-77
2023/08/19 06:59:32;;;;;;;23.42;21.70;;;;;;;44.13;26.38;100429.41;4995382;28;98482;-77
2023/08/19 07:02:01;;;;;;;25.65;23.77;;;;;;;44.33;26.09;100428.59;4964672;28;97418;-77
2023/08/19 07:04:27;;;;;;;24.40;22.70;;;;;;;44.50;25.77;100431.16;4990592;28;96867;-77
2023/08/19 07:06:57;;;;;;;25.08;23.38;;;;;;;44.86;24.90;100431.19;4968563;28;98833;-76
2023/08/19 07:09:23;;;;;;;24.30;22.77;;;;;;;44.26;25.67;100425.28;4992512;28;98346;-77
2023/08/19 07:11:56;;;;;;;25.13;23.13;;;;;;;45.03;24.98;100437.28;4991878;28;96878;-76
2023/08/19 07:14:23;;;;;;;23.65;22.08;;;;;;;45.98;24.27;100439.28;4991745;28;96892;-76
2023/08/19 07:16:49;;;;;;;23.45;21.85;;;;;;;46.32;23.63;100444.13;4974008;28;98640;-77
2023/08/19 07:19:22;;;;;;;22.58;20.85;;;;;;;47.36;23.08;100438.25;4990002;28;99000;-77
2023/08/19 07:21:48;;;;;;;23.42;21.52;;;;;;;47.66;22.91;100438.22;4993300;28;96728;-78
2023/08/19 07:24:15;;;;;;;23.15;21.42;;;;;;;47.05;23.07;100439.69;4976208;28;96893;-77
2023/08/19 07:26:41;;;;;;;22.67;21.17;;;;;;;46.80;23.63;100440.72;4992292;28;99025;-77
2023/08/19 07:29:07;;;;;;;23.23;21.63;;;;;;;46.38;23.48;100447.69;4974865;28;98410;-77
2023/08/19 07:31:33;;;;;;;23.65;21.95;;;;;;;46.80;23.79;100449.88;4992660;28;97183;-77
2023/08/19 07:34:01;;;;;;;22.58;21.17;;;;;;;46.60;22.80;100442.50;4993485;28;96857;-78
2023/08/19 07:36:27;;;;;;;23.08;21.40;;;;;;;46.74;23.18;100445.47;4992232;28;98800;-76
2023/08/19 07:38:52;;;;;;;23.52;21.70;;;;;;;47.74;22.47;100435.59;4993074;28;98553;-76
2023/08/19 07:41:19;;;;;;;23.20;21.55;;;;;;;47.31;22.76;100449.41;4958735;28;96879;-77
2023/08/19 07:43:48;;;;;;;22.98;21.48;;;;;;;47.21;22.56;100446.72;4993209;28;96916;-78
2023/08/19 07:46:15;;;;;;;22.92;21.40;;;;;;;48.23;21.94;100450.28;4992026;28;98906;-78
2023/08/19 07:48:42;;;;;;;23.92;22.15;;;;;;;49.25;20.98;100456.16;4975318;28;98552;-78
2023/08/19 07:51:08;;;;;;;22.40;20.92;;;;;;;48.98;21.16;100456.91;4991845;28;97427;-77
2023/08/19 07:53:34;;;;;;;22.77;21.27;;;;;;;49.64;20.54;100460.47;4972693;28;97022;-78
2023/08/19 07:55:59;;;;;;;22.90;21.40;;;;;;;50.39;19.76;100457.16;4990164;28;98933;-77
2023/08/19 07:58:25;;;;;;;23.70;22.00;;;;;;;50.28;19.59;100450.97;4992201;28;98339;-89
2023/08/19 08:00:50;;;;;;;23.33;21.75;;;;;;;50.58;19.39;100459.75;4983589;28;96881;-89
2023/08/19 08:03:16;;;;;;;22.85;21.10;;;;;;;51.53;18.84;100453.09;4991996;28;96602;-87
2023/08/19 08:05:41;;;;;;;22.52;20.77;;;;;;;52.67;18.44;100452.13;4992435;28;98829;-84
2023/08/19 08:08:07;;;;;;;23.52;21.80;;;;;;;53.66;17.46;100456.78;4991462;28;98439;-85
2023/08/19 08:10:33;;;;;;;24.90;23.20;;;;;;;53.10;17.65;100449.25;4991785;28;97297;-85
2023/08/19 08:12:59;;;;;;;23.83;22.23;;;;;;;53.48;17.21;100451.25;4992626;28;96827;-84
2023/08/19 08:15:24;;;;;;;23.63;21.52;;;;;;;54.39;16.67;100448.00;4991642;28;99605;-86
2023/08/19 08:17:50;;;;;;;22.45;21.00;;;;;;;55.45;16.91;100446.53;4986061;28;97461;-85
2023/08/19 08:20:16;;;;;;;23.15;21.65;;;;;;;56.03;15.14;100442.38;4974426;28;96886;-85
2023/08/19 08:22:41;;;;;;;23.20;21.60;;;;;;;55.49;16.09;100444.66;4993076;28;96797;-85
2023/08/19 08:25:09;;;;;;;22.73;21.23;;;;;;;56.34;15.57;100440.06;4992583;28;98517;-83
2023/08/19 08:27:35;;;;;;;22.67;21.13;;;;;;;56.91;15.50;100445.31;4974887;28;99041;-85
2023/08/19 08:30:01;;;;;;;22.98;21.58;;;;;;;56.79;14.61;100436.06;4993088;28;96769;-85
2023/08/19 08:32:26;;;;;;;23.42;21.75;;;;;;;57.15;14.56;100435.88;4992664;28;96916;-84
2023/08/19 08:34:52;;;;;;;22.60;20.92;;;;;;;58.26;14.00;100434.78;4991428;28;98917;-86
2023/08/19 08:37:18;;;;;;;24.17;22.50;;;;;;;57.05;14.55;100432.75;4990641;28;98573;-86
2023/08/19 08:39:44;;;;;;;22.40;20.70;;;;;;;57.37;14.05;100431.56;4995172;28;96731;-86
2023/08/19 08:42:11;;;;;;;23.45;21.75;;;;;;;58.74;14.04;100440.16;4996130;28;96813;-86
2023/08/19 08:44:37;;;;;;;23.15;21.75;;;;;;;58.28;13.98;100431.59;4995196;28;98990;-85
2023/08/19 08:47:03;;;;;;;23.20;21.45;;;;;;;57.41;14.06;100436.47;4996062;28;98430;-86
2023/08/19 08:49:29;;;;;;;22.65;21.25;;;;;;;57.77;14.40;100433.31;4995858;28;96919;-86
2023/08/19 08:51:59;;;;;;;23.33;21.83;;;;;;;58.04;13.84;100433.50;4978107;28;96943;-85
2023/08/19 08:54:24;;;;;;;23.73;22.20;;;;;;;57.85;14.31;100433.50;4977665;28;98711;-85
2023/08/19 08:56:50;;;;;;;23.20;21.70;;;;;;;58.28;13.98;100429.59;4995449;28;98593;-85
2023/08/19 08:59:16;;;;;;;23.67;22.17;;;;;;;58.58;13.79;100431.78;4995588;28;96813;-86
2023/08/19 09:01:44;;;;;;;22.00;20.42;;;;;;;58.41;13.96;100419.78;4996118;28;96810;-85
2023/08/19 09:04:10;;;;;;;24.67;23.02;;;;;;;57.50;14.46;100425.84;4995221;28;99216;-86
2023/08/19 09:06:37;;;;;;;23.70;22.13;;;;;;;57.58;14.08;100419.19;4977305;28;98585;-86
2023/08/19 09:09:05;;;;;;;22.90;21.48;;;;;;;58.40;13.90;100422.97;4995195;28;96809;-86
2023/08/19 09:11:36;;;;;;;23.47;21.80;;;;;;;56.74;13.90;100422.28;4977328;28;97530;-85
2023/08/19 09:14:12;;;;;;;23.23;21.58;;;;;;;57.33;14.30;100429.84;4992531;28;98840;-85
2023/08/19 09:16:38;;;;;;;24.17;22.42;;;;;;;54.47;16.10;100427.47;4995326;28;98633;-85
2023/08/19 09:19:03;;;;;;;24.70;22.52;;;;;;;52.57;17.20;100424.44;4995643;28;96736;-86
2023/08/19 09:21:29;;;;;;;23.17;21.50;;;;;;;51.53;18.58;100422.34;4995520;28;96825;-86
2023/08/19 09:23:56;;;;;;;24.20;22.35;;;;;;;48.46;20.92;100432.66;4977263;28;99035;-86
2023/08/19 09:26:22;;;;;;;23.23;21.52;;;;;;;46.13;23.25;100440.31;4977624;28;98633;-85
2023/08/19 09:28:47;;;;;;;22.65;21.00;;;;;;;44.65;25.54;100431.16;4977375;28;96910;-85
2023/08/19 09:31:20;;;;;;;4.70;4.22;;;;;;;43.52;26.81;100431.84;4995369;28;96899;-85
2023/08/19 09:33:47;;;;;;;11.68;10.68;;;;;;;42.87;27.43;100428.38;4994598;28;98842;-84
2023/08/19 09:36:14;;;;;;;24.33;22.58;;;;;;;42.48;28.03;100434.09;4995129;28;98428;-84
2023/08/19 09:38:44;;;;;;;25.25;23.55;;;;;;;40.67;29.68;100428.19;4995607;28;96861;-84
2023/08/19 09:41:11;;;;;;;23.92;22.35;;;;;;;40.98;30.13;100436.97;4995358;28;97130;-84
2023/08/19 09:43:40;;;;;;;25.80;23.70;;;;;;;40.69;30.76;100439.78;4994152;28;99975;-85
2023/08/19 09:46:06;;;;;;;26.02;24.02;;;;;;;39.41;31.09;100428.88;4994736;28;99575;-85
2023/08/19 09:48:32;;;;;;;23.63;22.02;;;;;;;39.69;31.77;100432.81;4995103;28;96737;-84
2023/08/19 09:50:58;;;;;;;23.63;21.90;;;;;;;39.27;30.74;100431.03;4994360;28;96801;-85
2023/08/19 09:53:27;;;;;;;25.40;23.50;;;;;;;39.06;31.87;100439.84;4994820;28;99094;-85
2023/08/19 09:55:53;;;;;;;;;;;;;;;38.44;32.58;100438.25;4995246;28;98921;-85
2023/08/19 09:58:18;;;;;;;24.55;22.70;;;;;;;38.75;33.01;100430.84;4994737;28;96818;-85
2023/08/19 10:00:44;;;;;;;24.50;22.88;;;;;;;38.46;32.44;100433.38;4994911;28;96819;-85
2023/08/19 10:03:09;;;;;;;24.48;22.63;;;;;;;37.10;33.62;100437.19;4994635;28;98795;-85
2023/08/19 10:05:41;;;;;;;24.77;23.08;;;;;;;37.47;33.63;100439.97;4994680;28;98823;-85
2023/08/19 10:08:10;;;;;;;22.60;21.10;;;;;;;37.80;33.43;100429.53;4994693;28;96809;-85
2023/08/19 10:10:38;;;;;;;24.20;22.42;;;;;;;37.74;33.10;100435.94;4976830;28;97421;-85
2023/08/19 10:13:03;;;;;;;24.63;22.83;;;;;;;36.98;32.38;100428.84;4994201;28;99362;-85
2023/08/19 10:15:32;;;;;;;25.20;23.30;;;;;;;36.79;33.02;100438.84;4994892;28;98474;-85
2023/08/19 10:17:59;;;;;;;24.98;23.17;;;;;;;36.70;33.61;100431.97;4994693;28;97271;-85
2023/08/19 10:20:26;;;;;;;24.00;22.33;;;;;;;36.76;33.87;100433.84;4963397;28;96904;-85
2023/08/19 10:22:55;;;;;;;23.55;21.98;;;;;;;36.79;34.19;100433.38;4992573;28;98730;-85
2023/08/19 10:25:21;;;;;;;23.48;21.80;;;;;;;36.70;34.56;100432.81;4976425;28;98302;-84
2023/08/19 10:27:46;;;;;;;23.92;22.13;;;;;;;36.47;34.86;100429.78;4976555;28;97770;-85
2023/08/19 10:30:32;;;;;;;24.55;22.67;;;;;;;36.17;34.94;100422.19;4976598;28;97093;-85
2023/08/19 10:33:05;;;;;;;23.55;21.85;;;;;;;36.31;34.88;100422.97;4993809;28;99076;-85
2023/08/19 10:36:03;;;;;;;23.38;21.80;;;;;;;36.34;35.91;100424.41;4993991;28;98285;-85
2023/08/19 10:38:51;;;;;;;24.17;22.42;;;;;;;36.18;35.44;100420.28;4994505;28;96754;-85
2023/08/19 10:41:36;;;;;;;24.00;22.13;;;;;;;35.29;35.82;100419.06;4994657;28;96860;-85
2023/08/19 10:44:07;;;;;;;24.08;22.38;;;;;;;35.35;36.92;100423.66;4975870;28;99195;-85
2023/08/19 10:46:36;;;;;;;23.70;21.80;;;;;;;35.45;36.81;100420.47;4993859;28;99121;-85
2023/08/19 10:49:03;;;;;;;23.75;22.02;;;;;;;35.48;36.98;100420.06;4993656;28;96685;-85
2023/08/19 10:51:47;;;;;;;23.95;22.25;;;;;;;35.47;37.47;100419.22;4994173;28;96862;-85
2023/08/19 10:54:14;;;;;;;25.27;23.13;;;;;;;35.33;38.12;100412.94;4993244;28;99071;-85
2023/08/19 10:56:51;;;;;;;25.65;23.75;;;;;;;35.03;38.39;100412.53;4993831;28;98608;-85
2023/08/19 10:59:18;;;;;;;24.65;22.92;;;;;;;35.08;38.80;100414.63;4993885;28;96748;-85
2023/08/19 11:01:45;;;;;;;24.00;21.98;;;;;;;34.59;37.93;100413.97;4992787;28;96933;-85
2023/08/19 11:04:11;;;;;;;24.30;22.42;;;;;;;34.55;38.20;100409.97;4975913;28;98920;-85
2023/08/19 11:06:38;;;;;;;23.33;21.63;;;;;;;34.62;38.05;100402.66;4975659;28;98439;-85
2023/08/19 11:09:03;;;;;;;24.70;22.73;;;;;;;34.10;37.60;100408.78;4993874;28;96865;-85